Time;durP1;ratioP1;P1;durP2;ratioP2;P2;SDS_P1;SDS_P2;PMS_P1;PMS_P2;Temp;Humidity;BMP_temperature;BMP_pressure;BME280_temperature;BME280_humidity;BME280_pressure;Samples;Min_cycle;Max_cycle;Signal;HPM_P1;HPM_P2
2023/01/31 00:01:39;;;;;;;3.70;2.10;;;;;;;;;;5067850;28;20055;-64
2023/01/31 00:04:11;;;;;;;4.38;1.85;;;;;;;;;;5067385;28;20052;-65
2023/01/31 00:06:42;;;;;;;;;;;;;;;;;;5068205;28;20051;-64
2023/01/31 00:09:12;;;;;;;3.90;1.70;;;;;;;;;;5067487;28;19927;-64
2023/01/31 00:11:42;;;;;;;5.40;2.40;;;;;;;;;;5017586;28;20057;-64
2023/01/31 00:14:18;;;;;;;8.95;1.67;;;;;;;;;;5033649;28;20056;-64
2023/01/31 00:16:48;;;;;;;3.90;1.70;;;;;;;;;;5051324;28;20059;-63
2023/01/31 00:19:18;;;;;;;3.47;1.90;;;;;;;;;;5067376;28;20040;-63
2023/01/31 00:21:48;;;;;;;4.40;1.88;;;;;;;;;;5067544;28;20051;-64
2023/01/31 00:24:19;;;;;;;3.78;1.55;;;;;;;;;;5043941;28;20080;-65
2023/01/31 00:26:55;;;;;;;6.97;1.98;;;;;;;;;;5069959;28;20108;-65
2023/01/31 00:29:26;;;;;;;3.70;1.77;;;;;;;;;;5070186;28;20057;-64
2023/01/31 00:31:57;;;;;;;6.57;1.90;;;;;;;;;;5069694;28;20504;-64
2023/01/31 00:34:28;;;;;;;6.45;1.80;;;;;;;;;;5070517;28;20384;-64
2023/01/31 00:36:58;;;;;;;3.58;2.00;;;;;;;;;;5073478;28;20045;-63
2023/01/31 00:39:28;;;;;;;3.97;1.75;;;;;;;;;;5073178;28;20041;-64
2023/01/31 00:41:58;;;;;;;9.35;2.00;;;;;;;;;;5070435;28;20044;-64
2023/01/31 00:44:28;;;;;;;7.80;1.80;;;;;;;;;;5054420;28;20056;-63
2023/01/31 00:46:59;;;;;;;5.35;2.00;;;;;;;;;;5030510;28;20045;-64
2023/01/31 00:49:29;;;;;;;4.50;1.98;;;;;;;;;;5030724;28;20501;-64
2023/01/31 00:51:59;;;;;;;3.47;1.60;;;;;;;;;;4981459;28;20626;-64
2023/01/31 00:54:29;;;;;;;5.55;2.03;;;;;;;;;;4981488;28;20421;-64
2023/01/31 00:57:00;;;;;;;1.95;0.82;;;;;;;;;;4955379;28;20423;-64
2023/01/31 00:59:30;;;;;;;2.78;1.00;;;;;;;;;;4923545;28;20098;-63
2023/01/31 01:02:00;;;;;;;3.63;0.93;;;;;;;;;;4951970;28;20112;-64
2023/01/31 01:04:30;;;;;;;3.35;1.55;;;;;;;;;;4951964;28;20239;-64
2023/01/31 01:07:00;;;;;;;5.47;1.40;;;;;;;;;;4952030;28;20054;-63
2023/01/31 01:09:33;;;;;;;2.63;1.40;;;;;;;;;;4951877;28;20047;-64
2023/01/31 01:12:04;;;;;;;2.22;1.25;;;;;;;;;;4952117;28;20055;-64
2023/01/31 01:14:34;;;;;;;1.83;1.08;;;;;;;;;;4951447;28;20066;-64
2023/01/31 01:17:04;;;;;;;4.18;1.20;;;;;;;;;;4953812;28;20047;-64
2023/01/31 01:19:34;;;;;;;2.70;0.93;;;;;;;;;;4970892;28;20058;-63
2023/01/31 01:22:06;;;;;;;3.80;1.13;;;;;;;;;;4970951;28;20053;-63
2023/01/31 01:24:36;;;;;;;2.15;0.90;;;;;;;;;;4951367;28;20051;-63
2023/01/31 01:27:06;;;;;;;1.00;0.50;;;;;;;;;;4951469;28;20051;-63
2023/01/31 01:29:36;;;;;;;2.05;1.10;;;;;;;;;;4951468;28;20070;-64
2023/01/31 01:32:06;;;;;;;2.67;0.90;;;;;;;;;;4951731;28;20063;-63
2023/01/31 01:34:37;;;;;;;1.70;0.73;;;;;;;;;;4969985;28;20054;-63
2023/01/31 01:37:18;;;;;;;2.65;0.82;;;;;;;;;;4999731;28;20054;-64
2023/01/31 01:39:51;;;;;;;1.23;0.40;;;;;;;;;;4946986;28;20051;-64
2023/01/31 01:42:25;;;;;;;1.27;0.50;;;;;;;;;;4967064;28;20059;-64
2023/01/31 01:44:59;;;;;;;1.67;0.60;;;;;;;;;;4958696;28;20055;-64
2023/01/31 01:47:35;;;;;;;1.13;0.50;;;;;;;;;;4919562;28;20059;-64
2023/01/31 01:50:08;;;;;;;1.75;0.60;;;;;;;;;;4951075;28;20055;-64
2023/01/31 01:52:45;;;;;;;1.08;0.52;;;;;;;;;;4951381;28;20047;-63
2023/01/31 01:55:34;;;;;;;1.95;0.63;;;;;;;;;;4906533;28;20057;-64
2023/01/31 01:58:43;;;;;;;0.80;0.40;;;;;;;;;;4913131;29;20058;-63
2023/01/31 02:01:15;;;;;;;3.28;0.60;;;;;;;;;;4932176;29;20070;-64
2023/01/31 02:03:48;;;;;;;1.45;0.60;;;;;;;;;;4933696;29;20063;-64
2023/01/31 02:06:19;;;;;;;0.80;0.50;;;;;;;;;;4951309;29;20132;-63
2023/01/31 02:08:50;;;;;;;0.82;0.40;;;;;;;;;;4919234;29;20628;-64
2023/01/31 02:11:26;;;;;;;1.35;0.60;;;;;;;;;;4944027;29;20055;-64
2023/01/31 02:14:09;;;;;;;1.58;0.50;;;;;;;;;;4963275;28;20046;-64
2023/01/31 02:16:39;;;;;;;0.98;0.50;;;;;;;;;;4947192;29;20078;-64
2023/01/31 02:19:39;;;;;;;1.95;0.52;;;;;;;;;;4912723;29;20052;-64
2023/01/31 02:22:21;;;;;;;0.90;0.43;;;;;;;;;;4925700;29;20063;-65
2023/01/31 02:25:09;;;;;;;0.55;0.32;;;;;;;;;;4950923;29;20440;-63
2023/01/31 02:27:54;;;;;;;0.50;0.30;;;;;;;;;;4950897;29;20070;-64
2023/01/31 02:30:24;;;;;;;0.40;0.30;;;;;;;;;;4934397;29;20525;-64
2023/01/31 02:33:24;;;;;;;0.40;0.30;;;;;;;;;;4950595;29;20058;-64
2023/01/31 02:36:24;;;;;;;0.45;0.35;;;;;;;;;;4892691;29;20657;-65
2023/01/31 02:39:18;;;;;;;1.08;0.40;;;;;;;;;;4924938;29;20048;-63
2023/01/31 02:42:11;;;;;;;3.15;0.38;;;;;;;;;;4931025;29;20520;-64
2023/01/31 02:44:59;;;;;;;0.77;0.20;;;;;;;;;;4858937;29;20498;-64
2023/01/31 02:47:29;;;;;;;0.75;0.38;;;;;;;;;;4855955;29;20057;-64
2023/01/31 02:50:22;;;;;;;0.50;0.30;;;;;;;;;;4857292;29;20049;-64
2023/01/31 02:53:14;;;;;;;0.88;0.40;;;;;;;;;;4873131;29;20057;-65
2023/01/31 02:56:19;;;;;;;0.70;0.70;;;;;;;;;;4913779;29;20052;-64
2023/01/31 02:59:06;;;;;;;0.55;0.40;;;;;;;;;;4949324;29;20514;-65
2023/01/31 03:01:45;;;;;;;1.13;0.30;;;;;;;;;;4930764;29;20544;-64
2023/01/31 03:04:16;;;;;;;2.22;0.40;;;;;;;;;;4883855;29;20067;-64
2023/01/31 03:06:53;;;;;;;1.88;0.73;;;;;;;;;;4870682;29;20048;-64
2023/01/31 03:09:36;;;;;;;1.05;0.47;;;;;;;;;;4924518;29;20059;-64
2023/01/31 03:12:29;;;;;;;0.60;0.40;;;;;;;;;;4877342;29;20406;-64
2023/01/31 03:17:30;;;;;;;1.48;0.30;;;;;;;;;;4930163;29;20524;-64
2023/01/31 03:18:34;;;;;;;2.67;0.30;;;;;;;;;;4854514;29;20514;-64
2023/01/31 03:21:15;;;;;;;0.38;0.20;;;;;;;;;;4833431;29;20110;-64
2023/01/31 03:23:50;;;;;;;1.00;0.40;;;;;;;;;;4819323;29;20058;-63
2023/01/31 03:26:23;;;;;;;1.27;0.40;;;;;;;;;;4806874;29;20054;-63
2023/01/31 03:28:56;;;;;;;;;;;;;;;;;;4855976;29;20065;-64
2023/01/31 03:31:54;;;;;;;1.13;0.47;;;;;;;;;;4873963;29;20081;-64
2023/01/31 03:34:26;;;;;;;1.80;0.30;;;;;;;;;;4874727;29;20422;-64
2023/01/31 03:37:12;;;;;;;0.90;0.35;;;;;;;;;;4873951;29;20053;-64
2023/01/31 03:40:11;;;;;;;1.00;0.32;;;;;;;;;;4860862;29;20120;-64
2023/01/31 03:42:52;;;;;;;1.13;0.32;;;;;;;;;;4873687;29;20060;-64
2023/01/31 03:45:41;;;;;;;3.03;0.45;;;;;;;;;;4874074;29;20443;-64
2023/01/31 03:48:17;;;;;;;0.63;0.30;;;;;;;;;;4873705;29;20060;-63
2023/01/31 03:51:00;;;;;;;1.20;0.30;;;;;;;;;;4857349;29;20058;-63
2023/01/31 03:53:42;;;;;;;1.40;0.30;;;;;;;;;;4908079;29;20444;-64
2023/01/31 03:56:16;;;;;;;1.80;0.68;;;;;;;;;;4908716;29;20115;-64
2023/01/31 03:58:55;;;;;;;0.70;0.40;;;;;;;;;;4879740;29;20611;-64
2023/01/31 04:01:30;;;;;;;1.23;0.32;;;;;;;;;;4879704;29;20048;-64
2023/01/31 04:04:09;;;;;;;0.55;0.40;;;;;;;;;;4893105;29;20533;-64
2023/01/31 04:06:40;;;;;;;0.85;0.38;;;;;;;;;;4873352;29;20049;-64
2023/01/31 04:09:10;;;;;;;3.28;0.40;;;;;;;;;;4884711;29;20516;-64
2023/01/31 04:11:42;;;;;;;1.98;0.47;;;;;;;;;;4873400;29;20068;-64
2023/01/31 04:14:12;;;;;;;2.08;0.38;;;;;;;;;;4867620;29;20052;-64
2023/01/31 04:16:42;;;;;;;1.33;0.93;;;;;;;;;;4911688;29;20107;-64
2023/01/31 04:19:12;;;;;;;4.05;0.45;;;;;;;;;;4895643;29;20060;-64
2023/01/31 04:21:42;;;;;;;0.95;0.55;;;;;;;;;;4847346;29;20061;-64
2023/01/31 04:24:12;;;;;;;0.80;0.70;;;;;;;;;;4858925;29;20053;-64
2023/01/31 04:26:42;;;;;;;1.55;0.50;;;;;;;;;;4904936;29;20057;-64
2023/01/31 04:29:13;;;;;;;2.80;0.40;;;;;;;;;;4908697;29;20061;-64
2023/01/31 04:31:43;;;;;;;1.42;0.40;;;;;;;;;;4890657;29;20064;-64
2023/01/31 04:34:13;;;;;;;1.15;0.50;;;;;;;;;;4895801;29;20460;-64
2023/01/31 04:36:43;;;;;;;1.13;0.30;;;;;;;;;;4907282;29;20059;-64
2023/01/31 04:39:14;;;;;;;1.25;0.40;;;;;;;;;;4930811;28;20065;-64
2023/01/31 04:41:44;;;;;;;1.80;0.45;;;;;;;;;;4992683;28;20074;-64
2023/01/31 04:44:15;;;;;;;2.45;0.70;;;;;;;;;;4981618;28;20073;-64
2023/01/31 04:46:48;;;;;;;1.08;0.55;;;;;;;;;;5050592;28;20060;-64
2023/01/31 04:49:18;;;;;;;2.05;0.68;;;;;;;;;;5073367;28;20492;-64
2023/01/31 04:51:48;;;;;;;2.75;0.70;;;;;;;;;;5073206;28;20044;-64
2023/01/31 04:54:18;;;;;;;4.82;0.70;;;;;;;;;;5071099;28;20055;-64
2023/01/31 04:56:48;;;;;;;1.60;1.10;;;;;;;;;;5054732;28;20059;-64
2023/01/31 04:59:18;;;;;;;1.58;0.95;;;;;;;;;;5073208;28;20045;-64
2023/01/31 05:01:48;;;;;;;2.10;0.70;;;;;;;;;;5070788;28;20049;-64
2023/01/31 05:04:18;;;;;;;4.43;2.72;;;;;;;;;;5070837;28;20053;-63
2023/01/31 05:06:48;;;;;;;2.50;1.60;;;;;;;;;;5050183;28;20053;-64
2023/01/31 05:09:21;;;;;;;8.02;3.33;;;;;;;;;;5030286;28;20058;-64
2023/01/31 05:11:52;;;;;;;5.85;2.38;;;;;;;;;;5030389;28;20064;-64
2023/01/31 05:14:22;;;;;;;2.60;1.50;;;;;;;;;;4965449;28;20161;-64
2023/01/31 05:16:52;;;;;;;4.60;1.60;;;;;;;;;;5030319;28;20405;-64
2023/01/31 05:19:22;;;;;;;1.98;0.90;;;;;;;;;;4998250;28;20676;-64
2023/01/31 05:21:58;;;;;;;2.28;0.88;;;;;;;;;;5009366;28;20062;-64
2023/01/31 05:24:31;;;;;;;2.33;0.82;;;;;;;;;;4977994;28;20054;-64
2023/01/31 05:27:04;;;;;;;1.00;0.70;;;;;;;;;;4993858;28;20061;-64
2023/01/31 05:29:34;;;;;;;1.38;0.60;;;;;;;;;;5010577;28;20521;-63
2023/01/31 05:32:05;;;;;;;3.10;1.50;;;;;;;;;;4993600;28;20058;-64
2023/01/31 05:34:35;;;;;;;1.98;1.38;;;;;;;;;;4958670;28;20053;-64
2023/01/31 05:37:06;;;;;;;2.85;0.95;;;;;;;;;;4958188;28;20054;-64
2023/01/31 05:39:36;;;;;;;2.40;1.08;;;;;;;;;;4974890;28;20050;-65
2023/01/31 05:42:06;;;;;;;3.25;1.35;;;;;;;;;;4990203;28;20058;-64
2023/01/31 05:44:36;;;;;;;2.10;1.05;;;;;;;;;;4962925;28;20106;-64
2023/01/31 05:47:06;;;;;;;5.65;2.40;;;;;;;;;;4981447;28;20054;-64
2023/01/31 05:49:37;;;;;;;5.78;2.03;;;;;;;;;;4951553;28;20055;-64
2023/01/31 05:52:07;;;;;;;3.45;1.65;;;;;;;;;;4951458;28;20439;-64
2023/01/31 05:54:37;;;;;;;4.25;1.75;;;;;;;;;;4950618;28;20051;-64
2023/01/31 05:57:07;;;;;;;3.80;1.60;;;;;;;;;;4951637;28;20062;-64
2023/01/31 05:59:37;;;;;;;4.18;1.92;;;;;;;;;;4945472;28;20542;-64
2023/01/31 06:02:10;;;;;;;4.50;1.83;;;;;;;;;;4970982;28;20547;-64
2023/01/31 06:04:40;;;;;;;4.18;1.58;;;;;;;;;;4986433;28;20055;-64
2023/01/31 06:07:10;;;;;;;2.15;1.35;;;;;;;;;;4970435;28;20517;-64
2023/01/31 06:09:40;;;;;;;2.17;1.20;;;;;;;;;;4970763;28;20055;-64
2023/01/31 06:12:14;;;;;;;1.80;0.77;;;;;;;;;;4979696;28;20055;-63
2023/01/31 06:14:45;;;;;;;2.00;0.90;;;;;;;;;;4994669;28;20054;-64
2023/01/31 06:17:15;;;;;;;2.53;1.05;;;;;;;;;;4999529;28;20037;-64
2023/01/31 06:19:45;;;;;;;2.97;0.98;;;;;;;;;;5048878;28;20045;-64
2023/01/31 06:22:15;;;;;;;3.25;1.30;;;;;;;;;;5048913;28;20045;-64
2023/01/31 06:24:45;;;;;;;5.10;1.40;;;;;;;;;;5048678;28;20049;-64
2023/01/31 06:27:15;;;;;;;3.92;1.52;;;;;;;;;;5052596;28;20079;-64
2023/01/31 06:29:45;;;;;;;3.03;1.40;;;;;;;;;;5071179;28;20037;-64
2023/01/31 06:32:15;;;;;;;3.67;1.60;;;;;;;;;;5051368;28;20049;-64
2023/01/31 06:34:46;;;;;;;3.60;1.30;;;;;;;;;;5035590;28;20063;-64
2023/01/31 06:37:16;;;;;;;2.65;1.20;;;;;;;;;;5018981;28;20508;-64
2023/01/31 06:39:46;;;;;;;2.15;0.90;;;;;;;;;;5048076;28;20192;-64
2023/01/31 06:42:16;;;;;;;2.55;0.93;;;;;;;;;;5048606;28;20048;-65
2023/01/31 06:44:46;;;;;;;2.10;0.88;;;;;;;;;;5048420;28;20061;-64
2023/01/31 06:47:16;;;;;;;3.45;0.80;;;;;;;;;;5012606;28;20061;-64
2023/01/31 06:49:46;;;;;;;1.98;0.80;;;;;;;;;;4992363;28;20069;-64
2023/01/31 06:52:16;;;;;;;3.67;0.90;;;;;;;;;;5008901;28;20069;-64
2023/01/31 06:54:46;;;;;;;3.78;0.98;;;;;;;;;;5008684;28;20062;-64
2023/01/31 06:57:16;;;;;;;4.20;0.70;;;;;;;;;;5008557;28;20038;-64
2023/01/31 06:59:46;;;;;;;1.55;0.68;;;;;;;;;;5008611;28;20058;-64
2023/01/31 07:02:16;;;;;;;2.00;0.82;;;;;;;;;;4945134;28;20080;-65
2023/01/31 07:04:46;;;;;;;1.40;0.70;;;;;;;;;;5008421;28;20054;-64
2023/01/31 07:07:16;;;;;;;1.35;0.68;;;;;;;;;;4961403;28;20430;-64
2023/01/31 07:09:46;;;;;;;1.52;0.77;;;;;;;;;;5009168;28;20057;-64
2023/01/31 07:12:17;;;;;;;2.13;0.77;;;;;;;;;;5014955;28;20049;-64
2023/01/31 07:14:47;;;;;;;2.13;0.70;;;;;;;;;;5047823;28;20425;-64
2023/01/31 07:17:20;;;;;;;1.55;0.82;;;;;;;;;;5036646;28;20056;-64
2023/01/31 07:19:49;;;;;;;3.50;1.00;;;;;;;;;;5011435;28;20057;-64
2023/01/31 07:22:21;;;;;;;1.98;0.60;;;;;;;;;;5011285;28;20057;-64
2023/01/31 07:24:51;;;;;;;1.02;0.57;;;;;;;;;;5037687;28;20064;-64
2023/01/31 07:27:24;;;;;;;4.40;0.70;;;;;;;;;;5059176;28;20066;-64
2023/01/31 07:29:54;;;;;;;1.70;0.73;;;;;;;;;;5070503;28;20037;-64
2023/01/31 07:32:29;;;;;;;3.05;0.77;;;;;;;;;;5070478;28;20044;-64
2023/01/31 07:34:59;;;;;;;4.55;0.90;;;;;;;;;;5068456;28;20474;-64
2023/01/31 07:37:29;;;;;;;1.40;0.73;;;;;;;;;;5035082;28;20059;-64
2023/01/31 07:40:00;;;;;;;2.20;0.70;;;;;;;;;;5067975;28;20059;-64
2023/01/31 07:42:30;;;;;;;1.77;0.88;;;;;;;;;;5051559;28;20052;-64
2023/01/31 07:45:00;;;;;;;1.77;0.70;;;;;;;;;;5073952;28;20041;-64
2023/01/31 07:47:50;;;;;;;1.65;0.73;;;;;;;;;;5074653;28;20051;-64
2023/01/31 07:50:20;;;;;;;3.47;0.80;;;;;;;;;;5074384;28;20099;-64
2023/01/31 07:52:50;;;;;;;1.63;0.55;;;;;;;;;;5074369;28;20040;-64
2023/01/31 07:55:21;;;;;;;1.55;0.82;;;;;;;;;;5074282;28;20037;-64
2023/01/31 07:57:51;;;;;;;1.90;0.93;;;;;;;;;;5074110;28;20051;-64
2023/01/31 08:03:32;;;;;;;3.15;0.52;;;;;;;;;;5074261;28;20077;-64
2023/01/31 08:06:11;;;;;;;1.63;0.93;;;;;;;;;;5071831;28;20516;-64
2023/01/31 08:08:42;;;;;;;1.77;0.70;;;;;;;;;;5071548;28;20045;-65
2023/01/31 08:11:12;;;;;;;3.80;0.70;;;;;;;;;;5074196;28;20040;-64
2023/01/31 08:13:42;;;;;;;1.48;0.60;;;;;;;;;;5055409;28;20068;-64
2023/01/31 08:16:14;;;;;;;2.20;0.60;;;;;;;;;;5072490;28;20049;-63
2023/01/31 08:18:44;;;;;;;1.08;0.68;;;;;;;;;;5055280;28;20535;-64
2023/01/31 08:21:15;;;;;;;2.20;0.90;;;;;;;;;;5073918;28;20420;-64
2023/01/31 08:23:45;;;;;;;2.90;0.80;;;;;;;;;;5071146;28;20512;-64
2023/01/31 08:26:19;;;;;;;2.35;0.77;;;;;;;;;;5054696;28;20044;-64
2023/01/31 08:28:50;;;;;;;2.65;0.70;;;;;;;;;;5054929;28;20520;-64
2023/01/31 08:31:23;;;;;;;2.03;0.75;;;;;;;;;;5074122;28;20518;-64
2023/01/31 08:33:54;;;;;;;1.90;0.50;;;;;;;;;;5070826;28;20053;-64
2023/01/31 08:36:27;;;;;;;1.83;0.73;;;;;;;;;;5070820;28;20053;-64
2023/01/31 08:38:57;;;;;;;1.50;0.70;;;;;;;;;;5070921;28;20440;-64
2023/01/31 08:41:29;;;;;;;1.55;0.85;;;;;;;;;;5070817;28;20051;-64
2023/01/31 08:43:59;;;;;;;1.25;0.60;;;;;;;;;;5070575;28;20056;-64
2023/01/31 08:46:34;;;;;;;1.48;0.60;;;;;;;;;;5070781;28;20521;-64
2023/01/31 08:49:06;;;;;;;2.97;0.88;;;;;;;;;;5037308;28;20045;-64
2023/01/31 08:51:36;;;;;;;1.30;0.77;;;;;;;;;;5070710;28;20060;-64
2023/01/31 08:54:08;;;;;;;1.30;0.57;;;;;;;;;;5070460;28;20049;-64
2023/01/31 08:56:38;;;;;;;1.00;0.60;;;;;;;;;;5069531;28;20049;-63
2023/01/31 08:59:10;;;;;;;7.20;0.88;;;;;;;;;;5070466;28;20052;-63
2023/01/31 09:01:42;;;;;;;1.23;0.70;;;;;;;;;;5070202;28;20754;-64
2023/01/31 09:04:13;;;;;;;2.05;0.68;;;;;;;;;;5069714;28;20562;-63
2023/01/31 09:06:43;;;;;;;1.98;0.80;;;;;;;;;;5053939;28;20057;-63
2023/01/31 09:09:13;;;;;;;2.92;1.23;;;;;;;;;;5070279;28;20488;-64
2023/01/31 09:11:43;;;;;;;2.05;1.15;;;;;;;;;;5071720;28;20071;-63
2023/01/31 09:14:13;;;;;;;2.20;1.00;;;;;;;;;;5070182;28;20436;-64
2023/01/31 09:16:45;;;;;;;1.50;0.77;;;;;;;;;;5072707;28;20044;-63
2023/01/31 09:19:15;;;;;;;1.25;0.65;;;;;;;;;;5072784;28;20056;-64
2023/01/31 09:25:56;;;;;;;2.20;0.88;;;;;;;;;;5143690;27;20248;-63
2023/01/31 09:28:27;;;;;;;3.67;0.95;;;;;;;;;;5114617;27;20393;-64
2023/01/31 09:31:09;;;;;;;3.90;0.90;;;;;;;;;;5139326;27;20121;-65
2023/01/31 09:33:40;;;;;;;2.28;1.20;;;;;;;;;;5128080;28;20042;-64
2023/01/31 09:36:13;;;;;;;5.78;1.13;;;;;;;;;;5120621;28;20047;-64
2023/01/31 09:38:44;;;;;;;2.30;1.30;;;;;;;;;;5123894;28;20043;-64
2023/01/31 09:41:37;;;;;;;3.17;0.77;;;;;;;;;;5093868;28;20047;-64
2023/01/31 09:44:23;;;;;;;2.83;1.52;;;;;;;;;;5130115;28;20398;-63
2023/01/31 09:46:58;;;;;;;3.50;1.58;;;;;;;;;;5129985;28;20532;-63
2023/01/31 09:49:34;;;;;;;2.58;1.30;;;;;;;;;;5074749;28;20051;-64
2023/01/31 09:52:04;;;;;;;2.47;1.10;;;;;;;;;;5093699;28;20398;-64
2023/01/31 09:54:38;;;;;;;1.42;0.90;;;;;;;;;;5077404;28;20055;-63
2023/01/31 09:57:31;;;;;;;2.85;1.10;;;;;;;;;;5130127;28;20060;-64
2023/01/31 10:00:21;;;;;;;3.20;1.23;;;;;;;;;;5028291;28;20054;-62
2023/01/31 10:03:18;;;;;;;1.40;0.90;;;;;;;;;;5093848;28;20059;-63
2023/01/31 10:05:54;;;;;;;2.78;1.02;;;;;;;;;;5076991;28;20048;-63
2023/01/31 10:08:43;;;;;;;4.80;1.27;;;;;;;;;;5129794;28;20495;-63
2023/01/31 10:11:51;;;;;;;6.25;1.67;;;;;;;;;;5110977;28;20055;-63
2023/01/31 10:14:36;;;;;;;2.90;1.10;;;;;;;;;;5076812;28;20052;-62
2023/01/31 10:17:15;;;;;;;3.63;1.27;;;;;;;;;;5129654;28;20038;-63
2023/01/31 10:20:00;;;;;;;6.25;1.25;;;;;;;;;;5129781;28;20039;-64
2023/01/31 10:22:41;;;;;;;6.95;1.60;;;;;;;;;;5129320;28;20050;-64
2023/01/31 10:25:17;;;;;;;4.05;2.58;;;;;;;;;;5093109;28;20410;-64
2023/01/31 10:27:55;;;;;;;6.03;2.00;;;;;;;;;;5106186;28;20857;-64
2023/01/31 10:30:37;;;;;;;6.10;2.03;;;;;;;;;;5073807;28;20525;-64
2023/01/31 10:33:30;;;;;;;3.28;1.83;;;;;;;;;;5072441;28;20054;-64
2023/01/31 10:36:10;;;;;;;2.83;1.42;;;;;;;;;;5049495;28;20040;-63
2023/01/31 10:38:57;;;;;;;3.67;1.45;;;;;;;;;;4995521;28;20048;-63
2023/01/31 10:41:53;;;;;;;1.52;1.23;;;;;;;;;;5092576;28;20384;-63
2023/01/31 10:44:41;;;;;;;4.15;1.40;;;;;;;;;;5032315;28;20068;-63
2023/01/31 10:47:17;;;;;;;1.98;1.15;;;;;;;;;;4992768;28;20051;-63
2023/01/31 10:49:49;;;;;;;2.00;0.93;;;;;;;;;;4992816;28;20066;-63
2023/01/31 10:52:24;;;;;;;2.85;1.30;;;;;;;;;;4976996;28;20059;-63
2023/01/31 10:55:04;;;;;;;4.93;1.00;;;;;;;;;;4992744;28;20066;-64
2023/01/31 10:57:34;;;;;;;1.67;0.90;;;;;;;;;;4961180;28;20046;-64
2023/01/31 11:00:06;;;;;;;2.25;0.90;;;;;;;;;;4960369;28;20057;-63
2023/01/31 11:02:37;;;;;;;4.70;1.00;;;;;;;;;;4976532;28;20046;-63
2023/01/31 11:05:20;;;;;;;1.40;0.85;;;;;;;;;;4999830;28;20058;-64
2023/01/31 11:07:50;;;;;;;4.25;0.80;;;;;;;;;;5012123;28;20057;-64
2023/01/31 11:10:24;;;;;;;2.40;1.15;;;;;;;;;;5012297;28;20049;-64
2023/01/31 11:13:03;;;;;;;3.35;0.77;;;;;;;;;;4995774;28;20064;-63
2023/01/31 11:15:40;;;;;;;2.80;0.82;;;;;;;;;;4979546;28;20058;-64
2023/01/31 11:18:26;;;;;;;1.08;0.60;;;;;;;;;;5012023;28;20058;-63
2023/01/31 11:20:59;;;;;;;0.93;0.60;;;;;;;;;;5027423;28;20059;-64
2023/01/31 11:23:33;;;;;;;1.95;1.30;;;;;;;;;;5071345;28;20478;-63
2023/01/31 11:26:05;;;;;;;1.33;0.85;;;;;;;;;;5114286;28;20050;-64
2023/01/31 11:28:40;;;;;;;2.75;0.50;;;;;;;;;;5029057;28;20047;-63
2023/01/31 11:31:23;;;;;;;0.60;0.40;;;;;;;;;;5114498;28;20485;-63
2023/01/31 11:33:58;;;;;;;2.90;0.50;;;;;;;;;;5095621;28;20070;-63
2023/01/31 11:36:42;;;;;;;1.23;0.52;;;;;;;;;;5114237;28;20494;-63
2023/01/31 11:39:26;;;;;;;;;;;;;;;;;;5114626;28;20063;-63
2023/01/31 11:42:04;;;;;;;1.83;0.50;;;;;;;;;;5114200;28;19920;-63
2023/01/31 11:44:34;;;;;;;4.35;0.65;;;;;;;;;;5070823;28;20060;-63
2023/01/31 11:47:11;;;;;;;0.93;0.40;;;;;;;;;;5070547;28;20061;-62
2023/01/31 11:49:42;;;;;;;1.60;0.52;;;;;;;;;;5071037;28;20052;-62
2023/01/31 11:52:15;;;;;;;;;;;;;;;;;;5021374;28;20056;-62
2023/01/31 11:54:50;;;;;;;1.25;0.60;;;;;;;;;;5021420;28;19927;-62
2023/01/31 11:57:33;;;;;;;1.35;0.57;;;;;;;;;;5070688;28;20057;-63
2023/01/31 12:00:17;;;;;;;4.57;1.13;;;;;;;;;;5053904;28;20060;-63
2023/01/31 12:02:49;;;;;;;;;;;;;;;;;;5021413;28;20499;-63
2023/01/31 12:05:19;;;;;;;2.05;0.70;;;;;;;;;;5037360;28;19921;-64
2023/01/31 12:07:56;;;;;;;0.63;0.40;;;;;;;;;;5021429;28;20585;-64
2023/01/31 12:10:33;;;;;;;1.45;0.40;;;;;;;;;;5070539;28;20056;-64
2023/01/31 12:13:19;;;;;;;1.30;0.68;;;;;;;;;;5070704;28;20059;-63
2023/01/31 12:16:01;;;;;;;1.00;0.40;;;;;;;;;;5070468;28;20059;-63
2023/01/31 12:18:46;;;;;;;0.88;0.40;;;;;;;;;;4989290;28;20148;-64
2023/01/31 12:21:28;;;;;;;;;;;;;;;;;;5076226;28;20060;-63
2023/01/31 12:24:15;;;;;;;1.58;0.32;;;;;;;;;;5049967;28;19921;-64
2023/01/31 12:26:57;;;;;;;0.40;0.40;;;;;;;;;;5017345;28;20500;-64
2023/01/31 12:29:57;;;;;;;1.83;0.65;;;;;;;;;;5050498;28;20057;-64
2023/01/31 12:33:07;;;;;;;1.10;0.52;;;;;;;;;;5017054;28;20049;-64
2023/01/31 12:36:08;;;;;;;0.38;0.38;;;;;;;;;;5000710;28;20045;-64
2023/01/31 12:39:00;;;;;;;0.57;0.30;;;;;;;;;;4985403;28;20037;-64
2023/01/31 12:41:48;;;;;;;1.63;0.40;;;;;;;;;;5033907;28;20053;-64
2023/01/31 12:44:44;;;;;;;2.05;0.40;;;;;;;;;;5050285;28;20085;-64
2023/01/31 12:47:33;;;;;;;0.95;0.60;;;;;;;;;;5050039;28;20056;-64
2023/01/31 12:50:14;;;;;;;0.93;0.35;;;;;;;;;;5000694;28;20044;-64
2023/01/31 12:53:00;;;;;;;2.25;0.73;;;;;;;;;;5050135;28;20408;-63
2023/01/31 12:55:42;;;;;;;0.85;0.45;;;;;;;;;;5016643;28;20508;-65
2023/01/31 12:58:29;;;;;;;2.25;0.45;;;;;;;;;;5049941;28;20524;-64
2023/01/31 13:01:47;;;;;;;0.80;0.40;;;;;;;;;;5030943;28;20055;-64
2023/01/31 13:04:36;;;;;;;0.40;0.30;;;;;;;;;;5010220;28;20084;-64
2023/01/31 13:07:32;;;;;;;2.08;0.40;;;;;;;;;;4993721;28;20048;-63
2023/01/31 13:10:07;;;;;;;0.63;0.40;;;;;;;;;;4920470;29;20422;-63
2023/01/31 13:12:39;;;;;;;0.85;0.40;;;;;;;;;;4951951;29;20067;-64
2023/01/31 13:15:27;;;;;;;1.17;0.70;;;;;;;;;;4936255;29;20059;-63
2023/01/31 13:18:06;;;;;;;1.42;0.90;;;;;;;;;;4951877;29;20431;-64
2023/01/31 13:20:39;;;;;;;3.50;0.45;;;;;;;;;;4951734;29;20062;-64
2023/01/31 13:23:32;;;;;;;2.05;0.50;;;;;;;;;;4951808;29;20051;-63
2023/01/31 13:26:17;;;;;;;4.03;1.33;;;;;;;;;;4897810;29;20456;-63
2023/01/31 13:29:28;;;;;;;1.75;0.40;;;;;;;;;;4913504;29;20163;-63
2023/01/31 13:32:24;;;;;;;5.93;0.80;;;;;;;;;;4842240;29;20058;-63
2023/01/31 13:35:02;;;;;;;1.92;0.73;;;;;;;;;;4811746;29;20193;-63
2023/01/31 13:37:37;;;;;;;0.98;0.30;;;;;;;;;;4840126;29;20056;-67
2023/01/31 13:40:13;;;;;;;2.33;0.43;;;;;;;;;;4913768;29;20060;-63
2023/01/31 13:42:43;;;;;;;0.55;0.40;;;;;;;;;;4897480;29;20064;-64
2023/01/31 13:45:31;;;;;;;0.70;0.52;;;;;;;;;;4913747;29;20052;-64
2023/01/31 13:48:19;;;;;;;1.55;0.30;;;;;;;;;;4946645;28;20055;-64
2023/01/31 13:51:16;;;;;;;0.77;0.30;;;;;;;;;;4971204;28;20503;-63
2023/01/31 13:54:19;;;;;;;0.40;0.30;;;;;;;;;;4897233;29;20089;-64
2023/01/31 13:56:53;;;;;;;0.70;0.30;;;;;;;;;;4935169;28;20047;-64
2023/01/31 13:59:32;;;;;;;1.40;0.50;;;;;;;;;;4970895;28;20055;-64
2023/01/31 14:02:05;;;;;;;1.02;0.30;;;;;;;;;;4931889;29;20510;-64
2023/01/31 14:04:36;;;;;;;1.27;0.47;;;;;;;;;;4931871;29;20056;-64
2023/01/31 14:07:28;;;;;;;2.05;0.50;;;;;;;;;;4931981;29;20082;-64
2023/01/31 14:09:58;;;;;;;0.68;0.45;;;;;;;;;;5007743;28;20053;-64
2023/01/31 14:12:36;;;;;;;3.05;0.60;;;;;;;;;;5012606;28;20163;-64
2023/01/31 14:15:48;;;;;;;1.13;0.50;;;;;;;;;;5012176;28;20042;-64
2023/01/31 14:18:38;;;;;;;2.47;0.75;;;;;;;;;;5012779;28;20069;-65
2023/01/31 14:22:03;;;;;;;1.30;0.57;;;;;;;;;;5013082;28;20498;-65
2023/01/31 14:24:58;;;;;;;4.03;0.80;;;;;;;;;;4954379;28;20059;-65
2023/01/31 14:27:49;;;;;;;3.42;0.70;;;;;;;;;;4954542;28;20051;-64
2023/01/31 14:30:42;;;;;;;2.80;0.93;;;;;;;;;;4916343;29;20071;-64
2023/01/31 14:33:12;;;;;;;6.38;1.40;;;;;;;;;;4973686;28;20058;-64
2023/01/31 14:36:05;;;;;;;2.05;0.40;;;;;;;;;;4973821;28;20081;-64
2023/01/31 14:38:39;;;;;;;3.50;0.60;;;;;;;;;;4974829;28;20077;-64
2023/01/31 14:41:29;;;;;;;0.57;0.40;;;;;;;;;;4992739;28;20108;-64
2023/01/31 14:44:39;;;;;;;1.48;0.40;;;;;;;;;;4989662;28;20059;-63
2023/01/31 14:47:28;;;;;;;0.88;0.38;;;;;;;;;;4989457;28;20090;-64
2023/01/31 14:50:19;;;;;;;0.98;0.40;;;;;;;;;;4973605;28;20059;-64
2023/01/31 14:53:30;;;;;;;0.65;0.30;;;;;;;;;;4973391;28;20062;-63
2023/01/31 14:56:06;;;;;;;0.90;0.40;;;;;;;;;;4938194;29;20071;-64
2023/01/31 14:58:40;;;;;;;4.60;0.30;;;;;;;;;;4953846;29;20059;-65
2023/01/31 15:01:13;;;;;;;0.30;0.30;;;;;;;;;;4954053;29;20059;-65
2023/01/31 15:04:15;;;;;;;0.70;0.22;;;;;;;;;;4906345;28;20058;-63
2023/01/31 15:06:49;;;;;;;0.30;0.30;;;;;;;;;;4905833;29;20114;-63
2023/01/31 15:09:25;;;;;;;0.45;0.45;;;;;;;;;;4953963;29;20551;-64
2023/01/31 15:11:57;;;;;;;0.25;0.22;;;;;;;;;;4953131;29;20051;-64
2023/01/31 15:14:36;;;;;;;0.32;0.30;;;;;;;;;;4953805;29;20055;-64
2023/01/31 15:17:35;;;;;;;0.90;0.30;;;;;;;;;;4953657;29;20058;-64
2023/01/31 15:20:25;;;;;;;0.30;0.30;;;;;;;;;;4899712;29;20048;-63
2023/01/31 15:23:03;;;;;;;1.45;0.50;;;;;;;;;;4883692;29;20048;-64
2023/01/31 15:25:42;;;;;;;1.15;0.30;;;;;;;;;;4864854;29;20063;-64
2023/01/31 15:28:19;;;;;;;1.02;0.30;;;;;;;;;;4896248;29;20464;-64
2023/01/31 15:30:51;;;;;;;2.97;0.40;;;;;;;;;;4865053;29;20061;-63
2023/01/31 15:33:34;;;;;;;1.38;0.30;;;;;;;;;;4893920;29;20067;-64
2023/01/31 15:36:09;;;;;;;2.50;0.60;;;;;;;;;;4934066;29;20585;-63
2023/01/31 15:38:47;;;;;;;1.33;0.30;;;;;;;;;;4934245;29;20067;-65
2023/01/31 15:41:45;;;;;;;1.25;0.40;;;;;;;;;;4934143;29;20058;-64
2023/01/31 15:44:28;;;;;;;2.35;0.70;;;;;;;;;;4898884;29;20059;-63
2023/01/31 15:47:02;;;;;;;0.85;0.40;;;;;;;;;;4853183;29;20052;-63
2023/01/31 15:49:40;;;;;;;2.95;0.77;;;;;;;;;;4914795;29;20052;-62
2023/01/31 15:52:17;;;;;;;3.30;1.20;;;;;;;;;;4883445;29;20056;-63
2023/01/31 15:54:58;;;;;;;3.80;0.73;;;;;;;;;;4914789;29;20060;-63